Карточка аэропорта USTR

Внимание!
Информация на этой странице в стадии наполнения.
Если вы не увидели какой-то информации, или заметили неточность - пожалуйста сообщите нам!
Спасибо!
Команда RU-STAFF
Название аэропортаРощино
Название аэропорта (англ.)Roshschino
Превышение378 ft. (115.2 m.)
Координаты57°10.098', 65°19.002'
Высота перехода700m
Эшелон переходаFL040
Коды ответчика5101-5137
Зона ОрВДТюмень РПИ (USTV)
Данные METARUSTR 090900Z 27004MPS CAVOK M06/M10 Q1013 R30/420355 R21/350047 NOSIG
Проноз погоды (TAF)USTR 090754Z 0909/1009 26005G10MPS 9999 DRSN BKN016CB TEMPO 0909/0912 28006G14MPS 1000 SHSN BLSN VV004 BECMG 0912/0913 30007G14MPS FM091600 32007G14MPS 3100 -SHSN BLSN BKN011CB TEMPO 0917/0924 1000 SHSN BLSN VV003 BECMG 1000/1002 34006G11MPS FM100600 33005MPS 3100 -SN BR OVC011
NOTAMshow/hide NOTAM
AWOS   TABLE

Информация о ВПП

ВПП Длина ВПП (м.) Покрытие Курс ВПП Частота ILS
033003Асфальтобетон34108.3
213003Асфальтобетон214110.7
122704Асфальтобетон121 
302704Асфальтобетон301 

Диспетчерские позиции

Позывной Наименование органа УВД Частота
USTR_GNDТюмень-Руление119.000
USTR_TWRТюмень-Старт118.200
USTR_R_APPТюмень-Круг126.100



Спутниковое изображение